Time;durP1;ratioP1;P1;durP2;ratioP2;P2;SDS_P1;SDS_P2;PMS_P1;PMS_P2;Temp;Humidity;BMP_temperature;BMP_pressure;BME280_temperature;BME280_humidity;BME280_pressure;Samples;Min_cycle;Max_cycle;Signal;HPM_P1;HPM_P2
2022/01/13 00:02:04;;;;;;;43.85;28.12;;;;;;;1.18;80.38;97485.31;4320794;32;20227;-59
2022/01/13 00:04:33;;;;;;;41.10;27.02;;;;;;;1.24;80.16;97496.88;4331161;32;20189;-59
2022/01/13 00:06:59;;;;;;;42.22;28.33;;;;;;;1.00;81.15;97475.22;4353177;32;20184;-59
2022/01/13 00:09:26;;;;;;;42.03;25.92;;;;;;;1.23;80.42;97476.94;4350844;32;20254;-59
2022/01/13 00:11:53;;;;;;;41.28;26.52;;;;;;;1.15;80.47;97470.00;4352027;32;20189;-61
2022/01/13 00:19:50;;;;;;;40.17;24.65;;;;;;;1.07;80.89;97490.97;4326768;32;20262;-60
2022/01/13 00:24:47;;;;;;;39.22;26.02;;;;;;;1.15;80.33;97493.53;4349240;32;20185;-60
2022/01/13 00:27:16;;;;;;;42.75;26.73;;;;;;;1.21;80.32;97497.22;4345862;32;20206;-59
2022/01/13 00:29:44;;;;;;;41.88;26.33;;;;;;;1.06;80.55;97491.97;4341220;32;20268;-59
2022/01/13 00:32:14;;;;;;;41.17;26.02;;;;;;;1.32;79.78;97499.38;4314695;32;20259;-60
2022/01/13 00:34:42;;;;;;;37.88;26.17;;;;;;;1.25;79.50;97493.22;4334291;32;20217;-60
2022/01/13 00:37:07;;;;;;;39.75;25.50;;;;;;;1.36;78.97;97492.81;4341107;32;20205;-60
2022/01/13 00:39:36;;;;;;;42.23;27.33;;;;;;;1.29;79.32;97503.16;4344590;32;20189;-60
2022/01/13 00:42:03;;;;;;;37.15;24.77;;;;;;;1.16;79.61;97502.16;4354229;32;20290;-60
2022/01/13 00:44:37;;;;;;;38.67;27.08;;;;;;;1.18;79.81;97513.25;4348436;32;20258;-60
2022/01/13 00:47:08;;;;;;;40.45;27.10;;;;;;;0.94;80.85;97520.34;4353874;32;20184;-60
2022/01/13 00:49:35;;;;;;;43.97;26.92;;;;;;;1.13;80.68;97516.41;4321235;32;20245;-59
2022/01/13 00:52:01;;;;;;;43.37;26.77;;;;;;;0.95;80.89;97521.97;4324823;32;20181;-60
2022/01/13 00:54:32;;;;;;;39.00;25.40;;;;;;;1.23;80.19;97516.16;4350863;32;20192;-60
2022/01/13 00:56:58;;;;;;;39.13;24.80;;;;;;;0.98;80.56;97513.78;4345539;32;20185;-59
2022/01/13 00:59:24;;;;;;;41.37;26.55;;;;;;;0.78;81.44;97517.91;4350636;32;20209;-65
2022/01/13 01:01:53;;;;;;;39.73;24.47;;;;;;;1.01;80.80;97513.44;4362114;32;20219;-60
2022/01/13 01:04:21;;;;;;;46.72;27.48;;;;;;;0.93;80.70;97517.91;4343737;32;20211;-60
2022/01/13 01:06:47;;;;;;;43.13;27.13;;;;;;;0.92;81.31;97513.69;4349425;32;20192;-60
2022/01/13 01:09:21;;;;;;;37.50;24.90;;;;;;;0.94;80.90;97511.69;4337064;32;20189;-60
2022/01/13 01:11:51;;;;;;;39.78;26.08;;;;;;;1.15;80.43;97503.97;4358989;32;20190;-60
2022/01/13 01:14:18;;;;;;;40.75;25.27;;;;;;;0.87;80.97;97498.53;4353779;32;20212;-60
2022/01/13 01:16:46;;;;;;;42.33;26.90;;;;;;;0.36;82.98;97507.97;4333289;32;20347;-60
2022/01/13 01:19:13;;;;;;;40.25;24.98;;;;;;;0.31;84.23;97497.22;4339010;32;20277;-59
2022/01/13 01:24:53;;;;;;;40.88;25.52;;;;;;;0.57;82.80;97507.31;4342651;32;20212;-60
2022/01/13 01:27:18;;;;;;;42.67;25.95;;;;;;;0.64;82.30;97511.63;4332639;32;20283;-60
2022/01/13 01:29:54;;;;;;;39.40;24.92;;;;;;;0.58;82.74;97514.16;4339868;32;20189;-60
2022/01/13 01:32:27;;;;;;;41.45;26.25;;;;;;;0.86;81.54;97525.63;4346208;32;20211;-60
2022/01/13 01:34:56;;;;;;;43.53;26.70;;;;;;;0.78;81.74;97520.50;4342923;32;20197;-60
2022/01/13 01:37:26;;;;;;;42.30;25.42;;;;;;;0.47;82.47;97520.59;4339781;32;20267;-61
2022/01/13 01:39:55;;;;;;;44.95;26.65;;;;;;;0.53;82.81;97522.50;4323908;32;20241;-60
2022/01/13 01:42:46;;;;;;;42.03;25.27;;;;;;;0.72;82.03;97521.22;4335680;32;20211;-60
2022/01/13 01:45:19;;;;;;;39.38;24.00;;;;;;;0.53;82.10;97522.50;4337728;32;20354;-60
2022/01/13 01:47:50;;;;;;;35.50;23.60;;;;;;;0.89;81.14;97514.03;4337732;32;20217;-61
2022/01/13 01:50:21;;;;;;;42.40;25.60;;;;;;;0.85;80.37;97512.75;4320939;33;20255;-60
2022/01/13 01:52:51;;;;;;;40.78;25.95;;;;;;;0.60;81.16;97520.84;4324454;33;20182;-60
2022/01/13 01:55:21;;;;;;;40.45;25.17;;;;;;;0.75;81.24;97513.03;4305465;33;20209;-60
2022/01/13 01:57:51;;;;;;;40.33;26.30;;;;;;;0.72;81.59;97513.38;4340443;32;20204;-59
2022/01/13 02:00:22;;;;;;;41.25;26.15;;;;;;;0.89;80.82;97514.03;4307050;32;20276;-59
2022/01/13 02:02:55;;;;;;;42.58;25.90;;;;;;;0.91;81.01;97512.88;4327389;32;20253;-59
2022/01/13 02:05:21;;;;;;;41.22;25.70;;;;;;;0.92;80.65;97513.69;4328990;32;20204;-61
2022/01/13 02:07:47;;;;;;;38.77;25.67;;;;;;;0.65;81.82;97513.25;4346659;32;20248;-60
2022/01/13 02:10:14;;;;;;;42.20;26.60;;;;;;;0.90;81.25;97502.59;4345355;32;20231;-60
2022/01/13 02:12:49;;;;;;;45.25;27.25;;;;;;;0.60;82.22;97510.38;4351287;32;20181;-59
2022/01/13 02:15:31;;;;;;;41.10;26.77;;;;;;;0.24;83.50;97511.94;4335712;32;20203;-59
2022/01/13 02:17:59;;;;;;;42.25;26.23;;;;;;;0.62;82.33;97507.59;4354207;32;20258;-59
2022/01/13 02:20:50;;;;;;;38.20;23.80;;;;;;;0.91;81.26;97506.84;4345965;32;20208;-60
2022/01/13 02:23:38;;;;;;;41.30;24.95;;;;;;;0.78;81.39;97509.25;4333091;32;20189;-60
2022/01/13 02:26:09;;;;;;;41.90;26.67;;;;;;;0.53;82.25;97506.84;4323363;32;20214;-60
2022/01/13 02:28:36;;;;;;;39.28;24.67;;;;;;;0.23;83.61;97507.72;4327903;32;20194;-59
2022/01/13 02:31:06;;;;;;;38.85;25.27;;;;;;;0.07;84.51;97513.03;4353661;32;20247;-60
2022/01/13 02:33:34;;;;;;;43.97;26.10;;;;;;;0.08;84.55;97501.63;4345505;32;20216;-60
2022/01/13 02:36:15;;;;;;;40.75;23.50;;;;;;;0.32;83.68;97493.63;4327798;32;20192;-60
2022/01/13 02:38:41;;;;;;;39.90;23.87;;;;;;;0.41;82.32;97497.81;4308275;32;20237;-60
2022/01/13 02:41:08;;;;;;;39.95;24.15;;;;;;;0.74;81.74;97487.91;4339795;32;20185;-59
2022/01/13 02:43:35;;;;;;;38.53;23.95;;;;;;;0.72;81.31;97482.03;4340462;32;20197;-60
2022/01/13 02:46:18;;;;;;;35.47;22.23;;;;;;;0.84;80.84;97485.00;4317375;32;20194;-60
2022/01/13 02:48:45;;;;;;;39.95;23.58;;;;;;;0.84;80.75;97485.00;4335764;32;20199;-60
2022/01/13 02:51:11;;;;;;;36.67;23.58;;;;;;;0.96;80.18;97489.62;4343910;32;20193;-60
2022/01/13 02:53:38;;;;;;;39.55;22.77;;;;;;;0.69;81.07;97493.66;4322221;32;20189;-59
2022/01/13 02:56:07;;;;;;;35.47;22.92;;;;;;;0.73;80.48;97493.28;4331559;32;20189;-59
2022/01/13 02:58:35;;;;;;;39.90;24.95;;;;;;;0.74;81.02;97500.13;4337707;32;20188;-60
2022/01/13 03:01:12;;;;;;;41.33;24.17;;;;;;;0.45;81.49;97501.69;4347435;32;20239;-60
2022/01/13 03:03:40;;;;;;;37.22;22.73;;;;;;;0.57;81.68;97500.28;4315654;32;20190;-60
2022/01/13 03:06:39;;;;;;;35.20;23.42;;;;;;;0.42;81.91;97506.44;4333701;32;20182;-60
2022/01/13 03:09:15;;;;;;;37.10;24.00;;;;;;;0.63;81.41;97503.97;4348846;32;20185;-60
2022/01/13 03:11:47;;;;;;;37.88;21.85;;;;;;;0.49;81.92;97507.38;4330281;32;20299;-59
2022/01/13 03:14:14;;;;;;;37.58;24.27;;;;;;;0.57;81.37;97505.50;4328974;32;20189;-59
2022/01/13 03:16:43;;;;;;;37.17;24.77;;;;;;;0.69;81.17;97509.31;4333043;32;20208;-60
2022/01/13 03:19:11;;;;;;;39.33;24.95;;;;;;;0.65;81.01;97512.44;4349691;32;20192;-59
2022/01/13 03:21:45;;;;;;;41.67;24.55;;;;;;;0.64;80.90;97518.66;4314016;32;20227;-60
2022/01/13 03:24:11;;;;;;;40.97;25.17;;;;;;;0.60;81.26;97510.38;4356148;32;20194;-60
2022/01/13 03:26:44;;;;;;;36.70;23.15;;;;;;;0.75;81.11;97509.59;4340189;32;20240;-60
2022/01/13 03:31:38;;;;;;;40.28;24.20;;;;;;;0.66;81.62;97519.28;4348131;32;20260;-60
2022/01/13 03:34:07;;;;;;;43.08;24.95;;;;;;;0.68;81.35;97520.75;4355578;32;20190;-60
2022/01/13 03:36:34;;;;;;;40.63;24.60;;;;;;;0.62;81.82;97521.44;4349611;32;20249;-60
2022/01/13 03:39:00;;;;;;;38.85;23.75;;;;;;;0.51;82.34;97521.06;4310145;32;20190;-60
2022/01/13 03:41:26;;;;;;;41.10;24.30;;;;;;;0.59;81.50;97516.59;4345058;32;20257;-60
2022/01/13 03:43:55;;;;;;;41.70;24.60;;;;;;;0.62;81.87;97511.00;4325920;32;20201;-60
2022/01/13 03:46:21;;;;;;;40.08;24.17;;;;;;;0.87;80.90;97508.97;4336388;32;20211;-60
2022/01/13 03:48:47;;;;;;;38.60;24.50;;;;;;;0.64;81.75;97501.19;4331505;32;20201;-60
2022/01/13 03:51:13;;;;;;;39.72;24.25;;;;;;;0.62;81.68;97497.16;4316023;32;20194;-60
2022/01/13 03:54:16;;;;;;;42.75;25.27;;;;;;;0.90;80.75;97492.16;4317482;32;20211;-60
2022/01/13 03:57:06;;;;;;;41.35;24.80;;;;;;;0.76;81.16;97493.75;4336635;32;20260;-60
2022/01/13 04:00:04;;;;;;;41.00;24.90;;;;;;;0.86;80.93;97498.72;4343911;32;20243;-61
2022/01/13 04:02:30;;;;;;;40.75;25.00;;;;;;;0.73;81.64;97499.31;4311760;32;20196;-60
2022/01/13 04:04:57;;;;;;;35.58;23.38;;;;;;;0.55;82.24;97497.03;4356117;32;20227;-60
2022/01/13 04:07:24;;;;;;;40.28;24.20;;;;;;;0.86;81.48;97490.88;4338419;32;20217;-60
2022/01/13 04:10:34;;;;;;;38.17;23.77;;;;;;;0.87;80.60;97492.50;4347735;32;20203;-60
2022/01/13 04:13:00;;;;;;;40.88;25.98;;;;;;;0.97;80.71;97493.06;4349338;32;20192;-60
2022/01/13 04:15:31;;;;;;;36.72;23.55;;;;;;;0.46;81.83;97485.03;4330609;32;20197;-59
2022/01/13 04:17:59;;;;;;;42.65;24.95;;;;;;;0.85;81.47;97482.22;4325057;32;20186;-60
2022/01/13 04:20:24;;;;;;;39.17;24.35;;;;;;;0.85;81.13;97481.41;4330724;32;20190;-60
2022/01/13 04:22:54;;;;;;;40.13;25.10;;;;;;;0.72;81.63;97483.84;4331392;32;20213;-60
2022/01/13 04:25:22;;;;;;;41.67;26.08;;;;;;;0.97;80.55;97480.81;4339480;32;20189;-60
2022/01/13 04:27:50;;;;;;;36.65;22.98;;;;;;;0.83;80.58;97486.03;4325934;32;20240;-60
2022/01/13 04:32:43;;;;;;;39.10;24.48;;;;;;;0.92;79.40;97503.22;4334558;32;20291;-60
2022/01/13 04:35:11;;;;;;;39.53;24.30;;;;;;;1.02;79.27;97509.03;4360231;32;20196;-59
2022/01/13 04:37:38;;;;;;;37.60;22.95;;;;;;;1.00;78.81;97511.00;4329188;32;20235;-60
2022/01/13 04:40:10;;;;;;;37.95;23.52;;;;;;;1.01;78.89;97510.81;4325990;32;20201;-59
2022/01/13 04:42:42;;;;;;;36.65;22.30;;;;;;;0.66;80.39;97509.66;4325471;32;20213;-60
2022/01/13 04:45:10;;;;;;;41.65;24.40;;;;;;;0.66;80.56;97514.88;4338769;32;20193;-59
2022/01/13 04:47:37;;;;;;;39.67;24.17;;;;;;;0.03;83.29;97527.41;4351951;32;20189;-60
2022/01/13 04:50:06;;;;;;;41.00;23.83;;;;;;;-0.44;85.91;97520.50;4337351;32;20237;-60
2022/01/13 04:52:33;;;;;;;37.55;23.58;;;;;;;0.03;84.37;97517.78;4329054;32;20209;-59
2022/01/13 04:55:08;;;;;;;38.78;24.35;;;;;;;0.09;83.50;97516.28;4333762;32;20181;-59
2022/01/13 04:57:34;;;;;;;39.53;23.87;;;;;;;0.48;82.07;97498.72;4330556;32;20196;-60
2022/01/13 05:00:09;;;;;;;39.72;22.62;;;;;;;0.37;82.11;97498.34;4339675;32;20252;-59
2022/01/13 05:02:37;;;;;;;38.67;23.17;;;;;;;-0.09;84.04;97504.34;4336490;32;20203;-59
2022/01/13 05:05:05;;;;;;;39.75;24.10;;;;;;;-0.02;84.10;97500.06;4328292;32;20229;-60
2022/01/13 05:07:35;;;;;;;39.00;24.33;;;;;;;0.21;83.55;97491.41;4346625;32;20189;-60
2022/01/13 05:10:01;;;;;;;38.33;22.65;;;;;;;0.22;83.35;97499.06;4336420;32;20199;-61
2022/01/13 05:12:48;;;;;;;37.37;23.40;;;;;;;-0.14;84.33;97511.88;4311409;32;20198;-60
2022/01/13 05:15:21;;;;;;;40.47;24.05;;;;;;;0.07;83.85;97502.59;4339699;32;20197;-59
2022/01/13 05:20:38;;;;;;;35.85;22.42;;;;;;;0.20;82.80;97513.31;4338111;32;20208;-60
2022/01/13 05:23:24;;;;;;;38.78;24.60;;;;;;;0.00;83.11;97521.56;4350998;32;20234;-60
2022/01/13 05:25:52;;;;;;;37.72;21.27;;;;;;;-0.23;83.57;97518.13;4349447;32;20185;-61
2022/01/13 05:28:22;;;;;;;38.92;23.35;;;;;;;0.03;83.50;97522.19;4333216;32;20186;-60
2022/01/13 05:30:49;;;;;;;33.90;21.87;;;;;;;0.19;82.10;97522.13;4335021;32;20244;-60
2022/01/13 05:33:15;;;;;;;35.40;21.27;;;;;;;0.09;82.30;97521.50;4346846;32;20181;-60
2022/01/13 05:35:47;;;;;;;34.13;21.87;;;;;;;0.32;81.55;97522.34;4327836;32;20221;-60
2022/01/13 05:38:14;;;;;;;33.95;20.23;;;;;;;0.34;80.50;97521.19;4321356;32;20206;-60
2022/01/13 05:40:40;;;;;;;31.35;19.92;;;;;;;0.34;81.22;97517.75;4341799;32;20214;-60
2022/01/13 05:43:06;;;;;;;32.08;20.15;;;;;;;-0.19;81.80;97523.78;4295063;32;20209;-61
2022/01/13 05:45:34;;;;;;;31.05;20.33;;;;;;;-0.18;82.40;97525.41;4339877;32;20227;-60
2022/01/13 05:48:02;;;;;;;36.92;22.40;;;;;;;-0.15;82.60;97535.50;4343194;32;20209;-60
2022/01/13 05:50:30;;;;;;;32.22;20.62;;;;;;;-0.76;84.76;97537.84;4317551;32;20194;-60
2022/01/13 05:52:57;;;;;;;31.60;20.20;;;;;;;-0.50;84.87;97537.63;4334972;32;20285;-60
2022/01/13 05:55:25;;;;;;;32.92;20.73;;;;;;;-0.46;84.86;97527.66;4342673;32;20232;-60
2022/01/13 05:57:51;;;;;;;32.35;19.87;;;;;;;-0.11;83.26;97526.34;4334056;32;20223;-60
2022/01/13 06:00:23;;;;;;;32.30;19.42;;;;;;;0.15;82.14;97518.22;4328066;32;20244;-60
2022/01/13 06:02:50;;;;;;;31.42;20.00;;;;;;;0.13;81.70;97526.22;4324258;32;20193;-60
2022/01/13 06:05:18;;;;;;;31.05;20.60;;;;;;;0.00;81.49;97539.81;4340374;32;20227;-60
2022/01/13 06:07:45;;;;;;;30.23;20.08;;;;;;;-0.20;82.44;97541.22;4356255;32;20194;-59
2022/01/13 06:10:19;;;;;;;29.45;18.60;;;;;;;-0.39;82.27;97544.25;4351787;32;20263;-60
2022/01/13 06:12:48;;;;;;;27.77;17.37;;;;;;;-0.50;82.45;97552.44;4322425;32;20212;-60
2022/01/13 06:15:21;;;;;;;27.62;18.52;;;;;;;-0.55;82.45;97552.13;4352024;32;20189;-60
2022/01/13 06:17:53;;;;;;;27.20;18.02;;;;;;;-0.21;81.49;97551.84;4350807;32;20199;-59
2022/01/13 06:20:30;;;;;;;26.67;17.80;;;;;;;-0.14;81.27;97556.19;4357292;32;20248;-60
2022/01/13 06:22:58;;;;;;;30.40;18.37;;;;;;;-0.01;80.35;97559.09;4322151;32;20216;-60
2022/01/13 06:25:25;;;;;;;29.20;18.65;;;;;;;-0.17;81.36;97569.56;4326713;32;20207;-60
2022/01/13 06:27:52;;;;;;;29.10;18.92;;;;;;;-0.52;82.88;97559.63;4351800;32;20203;-60
2022/01/13 06:30:18;;;;;;;31.37;19.90;;;;;;;-0.39;82.66;97555.47;4343018;32;20186;-60
2022/01/13 06:32:46;;;;;;;28.30;19.48;;;;;;;-0.19;82.64;97565.50;4307420;32;20211;-61
2022/01/13 06:35:14;;;;;;;30.58;19.52;;;;;;;0.00;81.52;97565.12;4311712;32;20274;-62
2022/01/13 06:37:42;;;;;;;31.70;19.98;;;;;;;-0.04;81.26;97564.63;4343709;32;20188;-61
2022/01/13 06:40:10;;;;;;;31.20;20.12;;;;;;;0.00;81.01;97573.72;4327661;32;20190;-61
2022/01/13 06:42:40;;;;;;;30.05;20.75;;;;;;;0.10;80.99;97572.72;4315126;33;20244;-60
2022/01/13 06:45:10;;;;;;;32.05;20.52;;;;;;;-0.13;81.96;97575.25;4333222;32;20197;-61
2022/01/13 06:47:40;;;;;;;32.00;20.62;;;;;;;0.13;81.73;97569.75;4344977;32;20189;-60
2022/01/13 06:50:09;;;;;;;30.83;19.65;;;;;;;0.11;81.25;97566.50;4342812;32;20193;-60
2022/01/13 06:52:36;;;;;;;31.42;19.58;;;;;;;0.14;81.14;97577.41;4339138;32;20209;-62
2022/01/13 06:55:02;;;;;;;32.50;20.08;;;;;;;0.17;81.21;97581.50;4333233;32;20211;-60
2022/01/13 06:57:29;;;;;;;32.97;21.27;;;;;;;-0.13;82.33;97575.25;4328465;32;20193;-60
2022/01/13 06:59:56;;;;;;;30.27;18.98;;;;;;;-0.48;83.84;97559.12;4345061;32;20304;-60
2022/01/13 07:02:28;;;;;;;31.00;19.73;;;;;;;-0.24;83.27;97560.00;4335964;32;20186;-64
2022/01/13 07:04:54;;;;;;;30.92;19.67;;;;;;;-0.43;83.55;97566.44;4313576;32;20185;-61
2022/01/13 07:07:19;;;;;;;34.10;20.50;;;;;;;-0.42;83.80;97570.66;4358633;32;20268;-61
2022/01/13 07:09:44;;;;;;;32.00;20.93;;;;;;;-0.45;83.93;97577.03;4350664;32;20185;-61
2022/01/13 07:12:10;;;;;;;32.33;20.43;;;;;;;-0.28;83.28;97577.78;4345407;32;20182;-62
2022/01/13 07:14:36;;;;;;;31.10;19.50;;;;;;;0.04;82.43;97570.78;4345658;32;20208;-61
2022/01/13 07:17:02;;;;;;;31.07;18.97;;;;;;;0.17;81.38;97571.06;4348521;32;20235;-60
2022/01/13 07:19:27;;;;;;;31.12;20.10;;;;;;;0.19;81.00;97569.91;4345571;32;20200;-61
2022/01/13 07:21:53;;;;;;;35.00;18.33;;;;;;;0.05;81.55;97577.63;4350694;32;20210;-60
2022/01/13 07:24:18;;;;;;;35.90;18.80;;;;;;;1.53;93.84;97558.78;4353031;32;20208;-59
2022/01/13 07:26:43;;;;;;;34.57;20.63;;;;;;;2.01;93.52;97573.09;4356411;32;20209;-60
2022/01/13 07:29:09;;;;;;;38.27;19.77;;;;;;;2.66;90.29;97561.72;4345645;32;20181;-60
2022/01/13 07:31:38;;;;;;;27.47;18.37;;;;;;;3.41;87.66;97572.38;4337498;32;20202;-60
2022/01/13 07:34:04;;;;;;;26.93;17.20;;;;;;;4.00;83.15;97571.88;4350212;32;20204;-60
2022/01/13 07:36:30;;;;;;;23.73;17.87;;;;;;;3.96;78.06;97569.84;4338762;32;20299;-60
2022/01/13 07:38:56;;;;;;;25.60;18.30;;;;;;;4.36;76.79;97570.81;4348255;32;20305;-60
2022/01/13 07:41:21;;;;;;;26.27;17.33;;;;;;;4.44;73.97;97573.25;4340491;32;20193;-60
2022/01/13 07:43:53;;;;;;;26.10;18.60;;;;;;;3.94;72.75;97580.56;4345021;32;20365;-60
2022/01/13 07:46:18;;;;;;;24.67;17.40;;;;;;;4.54;73.42;97584.19;4349811;32;20193;-60
2022/01/13 07:48:43;;;;;;;23.50;16.63;;;;;;;4.47;71.00;97575.47;4357839;32;20415;-60
2022/01/13 07:51:09;;;;;;;24.37;18.13;;;;;;;4.56;73.23;97573.50;4352444;32;20200;-59
2022/01/13 07:53:34;;;;;;;25.77;17.93;;;;;;;4.31;72.08;97578.47;4347810;32;20228;-60
2022/01/13 07:56:01;;;;;;;22.37;17.60;;;;;;;4.66;70.57;97582.59;4352588;32;20190;-61
2022/01/13 07:58:27;;;;;;;24.30;17.10;;;;;;;4.60;67.93;97575.50;4336469;32;20254;-60
2022/01/13 08:00:54;;;;;;;21.80;16.47;;;;;;;4.71;69.38;97576.75;4363956;32;20375;-60
2022/01/13 08:03:19;;;;;;;24.47;16.47;;;;;;;4.72;71.44;97588.88;4360931;32;20384;-60
2022/01/13 08:05:46;;;;;;;23.60;17.73;;;;;;;4.73;65.72;97587.88;4353171;32;20297;-60
2022/01/13 08:08:12;;;;;;;25.60;18.27;;;;;;;4.29;68.97;97591.81;4341290;32;20198;-60
2022/01/13 08:10:39;;;;;;;23.57;18.10;;;;;;;4.73;70.12;97593.13;4340610;32;20286;-60
2022/01/13 08:13:04;;;;;;;23.50;17.40;;;;;;;4.61;67.00;97590.25;4347163;32;20285;-64
2022/01/13 08:15:29;;;;;;;24.00;16.77;;;;;;;4.47;67.18;97591.25;4344360;32;20291;-60
2022/01/13 08:20:40;;;;;;;22.93;15.67;;;;;;;5.13;79.92;97588.72;4344936;32;20204;-60
2022/01/13 08:23:09;;;;;;;23.80;17.73;;;;;;;5.20;78.53;97589.50;4348668;32;20285;-61
2022/01/13 08:25:34;;;;;;;24.43;17.10;;;;;;;4.34;66.02;97604.34;4357711;32;20280;-61
2022/01/13 08:28:00;;;;;;;24.57;17.73;;;;;;;3.90;63.16;97600.31;4344623;32;20337;-62
2022/01/13 08:30:25;;;;;;;23.47;17.80;;;;;;;3.57;64.20;97597.50;4345089;32;20208;-61
2022/01/13 08:32:50;;;;;;;25.33;17.80;;;;;;;2.89;65.69;97603.44;4344533;32;20244;-61
2022/01/13 08:35:16;;;;;;;31.67;18.40;;;;;;;2.02;68.46;97609.56;4352310;32;20181;-61
2022/01/13 08:37:42;;;;;;;28.50;18.43;;;;;;;1.91;69.60;97606.56;4359417;32;20277;-62
2022/01/13 08:40:11;;;;;;;20.00;12.67;;;;;;;1.83;70.54;97602.28;4348662;32;20189;-53
2022/01/13 08:42:36;;;;;;;19.83;14.87;;;;;;;6.40;86.50;97586.41;4354830;32;20194;-54
2022/01/13 08:45:05;;;;;;;20.07;13.50;;;;;;;8.54;67.57;97577.97;4337482;32;20300;-56
2022/01/13 08:47:30;;;;;;;20.57;15.70;;;;;;;10.03;59.11;97571.44;4342232;32;20178;-55
2022/01/13 08:49:55;;;;;;;23.93;17.10;;;;;;;9.82;52.30;97583.47;4343592;32;20334;-57
2022/01/13 08:52:26;;;;;;;24.57;17.67;;;;;;;9.61;50.82;97584.06;4335908;32;20215;-60
2022/01/13 08:54:58;;;;;;;23.30;19.17;;;;;;;8.78;48.40;97602.69;4294290;32;20208;-63
2022/01/13 08:57:26;;;;;;;24.10;18.20;;;;;;;7.13;51.07;97610.50;4331048;32;20282;-61
2022/01/13 08:59:52;;;;;;;23.90;18.20;;;;;;;6.43;53.27;97611.56;4333024;32;20345;-62
2022/01/13 09:02:19;;;;;;;23.40;17.50;;;;;;;4.31;58.18;97620.50;4300334;33;20398;-60
2022/01/13 09:04:45;;;;;;;26.77;19.70;;;;;;;3.85;60.75;97623.72;4339516;32;20278;-62
2022/01/13 09:07:11;;;;;;;23.47;17.60;;;;;;;2.92;64.96;97629.25;4328986;32;20309;-61
2022/01/13 09:09:37;;;;;;;22.57;17.30;;;;;;;3.07;65.28;97619.53;4319390;32;20324;-63
2022/01/13 09:12:05;;;;;;;22.63;16.97;;;;;;;3.33;65.53;97619.72;4331760;32;20291;-62
2022/01/13 09:14:32;;;;;;;21.07;16.90;;;;;;;3.22;64.35;97624.69;4306103;32;20400;-61
2022/01/13 09:16:58;;;;;;;23.93;18.60;;;;;;;3.43;64.14;97620.22;4317099;32;20298;-64
2022/01/13 09:19:25;;;;;;;25.57;18.17;;;;;;;2.92;65.38;97626.62;4333704;32;20341;-63
2022/01/13 09:21:52;;;;;;;23.57;18.03;;;;;;;3.46;64.49;97626.91;4329841;32;20293;-60
2022/01/13 09:24:18;;;;;;;25.50;20.23;;;;;;;3.21;64.03;97623.87;4338230;32;20320;-60
2022/01/13 09:26:44;;;;;;;22.70;17.93;;;;;;;3.41;64.39;97622.22;4341266;32;20359;-60
2022/01/13 09:29:11;;;;;;;24.77;17.43;;;;;;;2.60;65.90;97623.50;4343683;32;20281;-60
2022/01/13 09:31:40;;;;;;;28.07;17.93;;;;;;;2.81;66.56;97630.56;4349169;32;20286;-60
2022/01/13 09:34:08;;;;;;;24.33;18.47;;;;;;;2.92;65.88;97614.34;4346293;32;20294;-60
2022/01/13 09:36:33;;;;;;;24.63;16.97;;;;;;;2.52;66.50;97621.00;4333481;32;20317;-61
2022/01/13 09:39:03;;;;;;;28.33;18.80;;;;;;;2.38;66.66;97621.84;4334262;32;20286;-59
2022/01/13 09:41:30;;;;;;;26.50;18.00;;;;;;;2.47;67.44;97622.56;4328415;32;20199;-62
2022/01/13 09:44:00;;;;;;;26.40;19.30;;;;;;;2.09;68.88;97625.31;4347097;32;20315;-61
2022/01/13 09:46:27;;;;;;;27.57;19.93;;;;;;;2.15;68.84;97629.03;4360166;32;20330;-61
2022/01/13 09:48:56;;;;;;;27.23;19.03;;;;;;;2.25;68.87;97637.44;4351004;32;20527;-60
2022/01/13 09:51:26;;;;;;;32.37;20.60;;;;;;;2.10;70.22;97628.75;4325082;32;20361;-62
2022/01/13 09:53:52;;;;;;;31.20;19.93;;;;;;;1.91;70.63;97627.50;4340491;32;20291;-61
2022/01/13 09:56:20;;;;;;;31.67;20.47;;;;;;;2.24;69.82;97639.22;4358641;32;20295;-61
2022/01/13 09:58:45;;;;;;;27.93;18.70;;;;;;;1.95;71.22;97631.41;4320093;32;20295;-61
2022/01/13 10:01:13;;;;;;;34.93;20.30;;;;;;;2.16;70.94;97638.50;4351549;32;20344;-60
2022/01/13 10:03:39;;;;;;;33.97;19.83;;;;;;;2.11;71.79;97630.37;4353791;32;20206;-61
2022/01/13 10:06:12;;;;;;;32.23;20.90;;;;;;;2.11;71.41;97627.75;4363994;32;20351;-61
2022/01/13 10:08:48;;;;;;;30.10;20.00;;;;;;;2.03;71.43;97629.50;4354679;32;20288;-59
2022/01/13 10:11:43;;;;;;;32.80;19.93;;;;;;;2.35;70.36;97632.69;4356011;32;20431;-61
2022/01/13 10:17:12;;;;;;;35.93;19.10;;;;;;;2.45;69.56;97638.47;4318955;32;20292;-64
2022/01/13 10:19:45;;;;;;;26.23;17.77;;;;;;;2.21;69.45;97633.53;4352068;32;20280;-59
2022/01/13 10:22:19;;;;;;;27.10;19.37;;;;;;;2.44;68.76;97620.31;4340522;32;20319;-61
2022/01/13 10:24:48;;;;;;;28.23;19.80;;;;;;;2.30;69.54;97619.34;4362136;32;20292;-61
2022/01/13 10:27:28;;;;;;;26.43;18.40;;;;;;;2.12;69.75;97616.31;4366160;32;20284;-62
2022/01/13 10:29:59;;;;;;;36.40;22.27;;;;;;;2.57;68.43;97616.03;4338583;32;20151;-60
2022/01/13 10:32:31;;;;;;;31.63;21.07;;;;;;;1.90;70.01;97613.63;4350295;32;20218;-60
2022/01/13 10:35:19;;;;;;;34.63;20.13;;;;;;;2.26;69.92;97605.00;4365842;32;20311;-62
2022/01/13 10:37:54;;;;;;;32.47;19.40;;;;;;;2.24;70.49;97609.63;4329423;32;20307;-60
2022/01/13 10:41:09;;;;;;;26.07;17.93;;;;;;;2.27;69.71;97606.63;4349511;32;20304;-60
2022/01/13 10:43:36;;;;;;;28.63;18.23;;;;;;;2.54;68.16;97605.91;4321613;32;20273;-57
2022/01/13 10:46:06;;;;;;;26.77;17.87;;;;;;;2.33;69.37;97593.59;4343633;32;20284;-60
2022/01/13 10:48:35;;;;;;;25.03;17.40;;;;;;;2.82;67.45;97592.06;4354152;32;20312;-59
2022/01/13 10:51:08;;;;;;;24.93;17.00;;;;;;;2.77;67.13;97592.63;4352898;32;20290;-60
2022/01/13 10:53:40;;;;;;;26.37;16.90;;;;;;;2.90;66.50;97590.16;4335686;32;20337;-59
2022/01/13 10:56:10;;;;;;;27.53;17.63;;;;;;;2.84;67.04;97584.84;4340568;32;20309;-59
2022/01/13 10:58:42;;;;;;;26.57;17.53;;;;;;;3.22;65.69;97583.53;4330733;32;20313;-60
2022/01/13 11:01:14;;;;;;;22.07;15.40;;;;;;;3.03;65.72;97584.19;4333352;32;20349;-61
2022/01/13 11:03:44;;;;;;;23.37;16.57;;;;;;;2.91;65.77;97585.72;4338928;32;20355;-61
2022/01/13 11:06:15;;;;;;;22.20;16.00;;;;;;;3.20;65.14;97577.69;4319238;32;20282;-59
2022/01/13 11:08:45;;;;;;;22.97;16.53;;;;;;;3.18;65.01;97576.25;4344322;32;20308;-60
2022/01/13 11:11:33;;;;;;;22.80;15.47;;;;;;;3.06;65.35;97573.34;4353084;32;20340;-60
2022/01/13 11:14:08;;;;;;;22.27;15.80;;;;;;;3.41;nan;97582.88;4332196;32;20312;-61
2022/01/13 11:16:39;;;;;;;21.97;15.10;;;;;;;3.22;64.86;97577.47;4340358;32;20301;-60
2022/01/13 11:19:15;;;;;;;22.33;15.63;;;;;;;3.39;64.62;97568.31;4342427;32;20331;-60
2022/01/13 11:21:42;;;;;;;22.73;15.50;;;;;;;3.35;64.54;97562.63;4330510;32;20277;-59
2022/01/13 11:24:15;;;;;;;20.47;14.27;;;;;;;3.33;64.82;97559.41;4345694;32;20360;-59
2022/01/13 11:27:03;;;;;;;18.53;13.50;;;;;;;3.71;62.58;97548.53;4336739;32;20290;-59
2022/01/13 11:29:32;;;;;;;18.07;14.33;;;;;;;2.83;64.80;97559.63;4347995;32;20286;-59
2022/01/13 11:31:59;;;;;;;19.30;14.33;;;;;;;2.99;65.44;97541.81;4336832;32;20304;-59
2022/01/13 11:34:33;;;;;;;18.63;14.23;;;;;;;2.94;65.47;97538.13;4323721;32;20306;-59
2022/01/13 11:37:03;;;;;;;18.10;13.00;;;;;;;3.26;64.87;97528.91;4294258;33;20310;-59
2022/01/13 11:39:41;;;;;;;17.40;13.40;;;;;;;3.28;64.34;97530.34;4328543;32;20382;-59
2022/01/13 11:42:15;;;;;;;20.37;13.67;;;;;;;3.34;63.85;97533.97;4361401;32;20286;-58
2022/01/13 11:44:43;;;;;;;19.37;13.83;;;;;;;2.98;65.11;97527.09;4352524;32;20288;-60
2022/01/13 11:47:26;;;;;;;21.00;13.60;;;;;;;3.03;65.14;97537.00;4348182;32;20301;-59
2022/01/13 11:49:59;;;;;;;20.30;14.43;;;;;;;3.36;63.56;97538.03;4346159;32;20294;-59
2022/01/13 11:52:55;;;;;;;19.47;14.00;;;;;;;3.23;64.02;97543.22;4329605;32;20285;-64
2022/01/13 11:55:41;;;;;;;16.43;12.43;;;;;;;3.31;63.60;97529.97;4325259;32;20281;-59
2022/01/13 11:58:30;;;;;;;16.27;13.03;;;;;;;3.48;63.11;97513.91;4346065;32;20333;-60
2022/01/13 12:01:07;;;;;;;18.03;13.57;;;;;;;3.57;62.58;97520.59;4341730;32;20308;-60
2022/01/13 12:03:36;;;;;;;20.87;13.07;;;;;;;3.32;63.12;97515.03;4346590;32;20338;-59